sensor_id;sensor_type;location;lat;lon;timestamp;P1;durP1;ratioP1;P2;durP2;ratioP2
44588;SDS011;30298;52.562;13.414;2023-03-09T00:02:14;22.60;;;11.60;;
44588;SDS011;30298;52.562;13.414;2023-03-09T00:04:40;23.37;;;12.13;;
44588;SDS011;30298;52.562;13.414;2023-03-09T00:07:05;25.93;;;13.70;;
44588;SDS011;30298;52.562;13.414;2023-03-09T00:09:30;22.40;;;13.13;;
44588;SDS011;30298;52.562;13.414;2023-03-09T00:11:55;23.33;;;12.87;;
44588;SDS011;30298;52.562;13.414;2023-03-09T00:14:21;26.27;;;12.27;;
44588;SDS011;30298;52.562;13.414;2023-03-09T00:16:47;22.15;;;12.45;;
44588;SDS011;30298;52.562;13.414;2023-03-09T00:19:12;27.90;;;13.80;;
44588;SDS011;30298;52.562;13.414;2023-03-09T00:21:45;23.80;;;12.82;;
44588;SDS011;30298;52.562;13.414;2023-03-09T00:24:15;28.65;;;13.65;;
44588;SDS011;30298;52.562;13.414;2023-03-09T00:26:43;27.60;;;13.32;;
44588;SDS011;30298;52.562;13.414;2023-03-09T00:29:10;26.48;;;13.45;;
44588;SDS011;30298;52.562;13.414;2023-03-09T00:31:35;25.95;;;12.27;;
44588;SDS011;30298;52.562;13.414;2023-03-09T00:34:00;26.57;;;13.07;;
44588;SDS011;30298;52.562;13.414;2023-03-09T00:36:26;25.90;;;12.97;;
44588;SDS011;30298;52.562;13.414;2023-03-09T00:38:52;28.13;;;13.77;;
44588;SDS011;30298;52.562;13.414;2023-03-09T00:41:18;22.42;;;12.57;;
44588;SDS011;30298;52.562;13.414;2023-03-09T00:43:43;27.20;;;12.93;;
44588;SDS011;30298;52.562;13.414;2023-03-09T00:46:08;23.30;;;12.20;;
44588;SDS011;30298;52.562;13.414;2023-03-09T00:48:35;24.77;;;13.17;;
44588;SDS011;30298;52.562;13.414;2023-03-09T00:51:01;26.65;;;13.80;;
44588;SDS011;30298;52.562;13.414;2023-03-09T00:53:26;23.00;;;12.47;;
44588;SDS011;30298;52.562;13.414;2023-03-09T00:55:51;24.27;;;12.57;;
44588;SDS011;30298;52.562;13.414;2023-03-09T00:58:16;26.17;;;12.33;;
44588;SDS011;30298;52.562;13.414;2023-03-09T01:00:42;26.03;;;13.67;;
44588;SDS011;30298;52.562;13.414;2023-03-09T01:03:07;26.00;;;12.70;;
44588;SDS011;30298;52.562;13.414;2023-03-09T01:05:32;25.37;;;12.87;;
44588;SDS011;30298;52.562;13.414;2023-03-09T01:07:57;23.70;;;12.57;;
44588;SDS011;30298;52.562;13.414;2023-03-09T01:10:23;25.00;;;13.03;;
44588;SDS011;30298;52.562;13.414;2023-03-09T01:12:48;25.27;;;13.53;;
44588;SDS011;30298;52.562;13.414;2023-03-09T01:15:13;21.77;;;11.70;;
44588;SDS011;30298;52.562;13.414;2023-03-09T01:17:39;23.53;;;12.67;;
44588;SDS011;30298;52.562;13.414;2023-03-09T01:20:04;25.40;;;12.80;;
44588;SDS011;30298;52.562;13.414;2023-03-09T01:22:30;23.20;;;12.68;;
44588;SDS011;30298;52.562;13.414;2023-03-09T01:24:55;28.60;;;13.23;;
44588;SDS011;30298;52.562;13.414;2023-03-09T01:27:20;24.70;;;12.40;;
44588;SDS011;30298;52.562;13.414;2023-03-09T01:29:46;26.07;;;12.73;;
44588;SDS011;30298;52.562;13.414;2023-03-09T01:32:11;22.97;;;12.90;;
44588;SDS011;30298;52.562;13.414;2023-03-09T01:34:36;30.03;;;12.23;;
44588;SDS011;30298;52.562;13.414;2023-03-09T01:37:02;26.00;;;12.83;;
44588;SDS011;30298;52.562;13.414;2023-03-09T01:39:27;25.97;;;11.97;;
44588;SDS011;30298;52.562;13.414;2023-03-09T01:41:52;26.17;;;12.43;;
44588;SDS011;30298;52.562;13.414;2023-03-09T01:44:18;26.33;;;12.57;;
44588;SDS011;30298;52.562;13.414;2023-03-09T01:46:50;21.37;;;11.10;;
44588;SDS011;30298;52.562;13.414;2023-03-09T01:49:24;22.50;;;12.00;;
44588;SDS011;30298;52.562;13.414;2023-03-09T01:52:01;23.95;;;11.25;;
44588;SDS011;30298;52.562;13.414;2023-03-09T01:54:34;23.08;;;11.85;;
44588;SDS011;30298;52.562;13.414;2023-03-09T01:57:03;23.95;;;12.32;;
44588;SDS011;30298;52.562;13.414;2023-03-09T01:59:30;26.85;;;12.38;;
44588;SDS011;30298;52.562;13.414;2023-03-09T02:01:56;29.02;;;13.88;;
44588;SDS011;30298;52.562;13.414;2023-03-09T02:04:25;23.95;;;13.05;;
44588;SDS011;30298;52.562;13.414;2023-03-09T02:06:52;24.40;;;12.60;;
44588;SDS011;30298;52.562;13.414;2023-03-09T02:11:43;26.27;;;13.07;;
44588;SDS011;30298;52.562;13.414;2023-03-09T02:14:09;26.05;;;13.10;;
44588;SDS011;30298;52.562;13.414;2023-03-09T02:16:34;25.87;;;13.03;;
44588;SDS011;30298;52.562;13.414;2023-03-09T02:18:59;26.13;;;13.40;;
44588;SDS011;30298;52.562;13.414;2023-03-09T02:26:21;28.37;;;13.57;;
44588;SDS011;30298;52.562;13.414;2023-03-09T02:28:47;28.88;;;14.25;;
44588;SDS011;30298;52.562;13.414;2023-03-09T02:31:13;26.35;;;13.52;;
44588;SDS011;30298;52.562;13.414;2023-03-09T02:33:39;25.27;;;13.10;;
44588;SDS011;30298;52.562;13.414;2023-03-09T02:36:04;29.13;;;13.77;;
44588;SDS011;30298;52.562;13.414;2023-03-09T02:38:29;28.20;;;14.57;;
44588;SDS011;30298;52.562;13.414;2023-03-09T02:40:56;29.20;;;13.93;;
44588;SDS011;30298;52.562;13.414;2023-03-09T02:43:24;29.98;;;14.73;;
44588;SDS011;30298;52.562;13.414;2023-03-09T02:45:51;33.22;;;14.20;;
44588;SDS011;30298;52.562;13.414;2023-03-09T02:48:16;28.77;;;13.70;;
44588;SDS011;30298;52.562;13.414;2023-03-09T02:50:41;30.93;;;15.03;;
44588;SDS011;30298;52.562;13.414;2023-03-09T02:55:33;30.38;;;13.57;;
44588;SDS011;30298;52.562;13.414;2023-03-09T02:57:58;31.13;;;16.13;;
44588;SDS011;30298;52.562;13.414;2023-03-09T03:00:23;29.37;;;14.33;;
44588;SDS011;30298;52.562;13.414;2023-03-09T03:02:50;33.55;;;15.50;;
44588;SDS011;30298;52.562;13.414;2023-03-09T03:05:16;29.17;;;14.83;;
44588;SDS011;30298;52.562;13.414;2023-03-09T03:07:41;29.60;;;14.27;;
44588;SDS011;30298;52.562;13.414;2023-03-09T03:10:06;27.60;;;14.07;;
44588;SDS011;30298;52.562;13.414;2023-03-09T03:12:32;28.30;;;14.43;;
44588;SDS011;30298;52.562;13.414;2023-03-09T03:14:57;28.87;;;13.00;;
44588;SDS011;30298;52.562;13.414;2023-03-09T03:17:22;31.93;;;14.03;;
44588;SDS011;30298;52.562;13.414;2023-03-09T03:19:48;28.03;;;13.73;;
44588;SDS011;30298;52.562;13.414;2023-03-09T03:22:13;30.70;;;13.53;;
44588;SDS011;30298;52.562;13.414;2023-03-09T03:24:38;29.50;;;13.50;;
44588;SDS011;30298;52.562;13.414;2023-03-09T03:27:04;28.08;;;12.00;;
44588;SDS011;30298;52.562;13.414;2023-03-09T03:29:30;27.60;;;13.13;;
44588;SDS011;30298;52.562;13.414;2023-03-09T03:31:55;25.57;;;12.40;;
44588;SDS011;30298;52.562;13.414;2023-03-09T03:34:20;27.17;;;12.87;;
44588;SDS011;30298;52.562;13.414;2023-03-09T03:36:45;23.13;;;11.30;;
44588;SDS011;30298;52.562;13.414;2023-03-09T03:39:11;26.30;;;11.90;;
44588;SDS011;30298;52.562;13.414;2023-03-09T03:41:36;26.03;;;12.53;;
44588;SDS011;30298;52.562;13.414;2023-03-09T03:44:01;26.93;;;13.90;;
44588;SDS011;30298;52.562;13.414;2023-03-09T03:46:27;24.80;;;11.18;;
44588;SDS011;30298;52.562;13.414;2023-03-09T03:48:52;21.88;;;11.57;;
44588;SDS011;30298;52.562;13.414;2023-03-09T03:51:18;22.00;;;11.70;;
44588;SDS011;30298;52.562;13.414;2023-03-09T03:53:43;23.33;;;11.97;;
44588;SDS011;30298;52.562;13.414;2023-03-09T03:56:08;23.00;;;11.90;;
44588;SDS011;30298;52.562;13.414;2023-03-09T03:58:34;24.00;;;12.18;;
44588;SDS011;30298;52.562;13.414;2023-03-09T04:00:59;27.23;;;11.47;;
44588;SDS011;30298;52.562;13.414;2023-03-09T04:03:24;26.87;;;12.47;;
44588;SDS011;30298;52.562;13.414;2023-03-09T04:05:49;25.90;;;13.37;;
44588;SDS011;30298;52.562;13.414;2023-03-09T04:08:15;25.03;;;14.07;;
44588;SDS011;30298;52.562;13.414;2023-03-09T04:10:40;25.30;;;13.33;;
44588;SDS011;30298;52.562;13.414;2023-03-09T04:13:05;24.60;;;13.10;;
44588;SDS011;30298;52.562;13.414;2023-03-09T04:15:31;27.43;;;13.87;;
44588;SDS011;30298;52.562;13.414;2023-03-09T04:17:57;27.25;;;13.07;;
44588;SDS011;30298;52.562;13.414;2023-03-09T04:20:22;28.90;;;13.47;;
44588;SDS011;30298;52.562;13.414;2023-03-09T04:22:48;23.87;;;13.23;;
44588;SDS011;30298;52.562;13.414;2023-03-09T04:25:13;30.80;;;14.10;;
44588;SDS011;30298;52.562;13.414;2023-03-09T04:27:40;28.67;;;14.30;;
44588;SDS011;30298;52.562;13.414;2023-03-09T04:30:05;25.87;;;13.67;;
44588;SDS011;30298;52.562;13.414;2023-03-09T04:32:31;26.33;;;12.73;;
44588;SDS011;30298;52.562;13.414;2023-03-09T04:34:56;27.87;;;13.70;;
44588;SDS011;30298;52.562;13.414;2023-03-09T04:37:21;29.77;;;14.77;;
44588;SDS011;30298;52.562;13.414;2023-03-09T04:39:47;30.20;;;14.07;;
44588;SDS011;30298;52.562;13.414;2023-03-09T04:42:12;30.50;;;14.93;;
44588;SDS011;30298;52.562;13.414;2023-03-09T04:44:37;29.37;;;15.10;;
44588;SDS011;30298;52.562;13.414;2023-03-09T04:47:03;28.93;;;15.07;;
44588;SDS011;30298;52.562;13.414;2023-03-09T04:49:28;29.13;;;14.85;;
44588;SDS011;30298;52.562;13.414;2023-03-09T04:51:54;26.70;;;13.82;;
44588;SDS011;30298;52.562;13.414;2023-03-09T04:54:20;29.83;;;14.80;;
44588;SDS011;30298;52.562;13.414;2023-03-09T04:56:45;30.43;;;15.77;;
44588;SDS011;30298;52.562;13.414;2023-03-09T04:59:10;31.70;;;16.37;;
44588;SDS011;30298;52.562;13.414;2023-03-09T05:01:35;33.40;;;15.83;;
44588;SDS011;30298;52.562;13.414;2023-03-09T05:04:01;34.80;;;15.97;;
44588;SDS011;30298;52.562;13.414;2023-03-09T05:06:26;30.07;;;15.90;;
44588;SDS011;30298;52.562;13.414;2023-03-09T05:08:51;30.90;;;15.07;;
44588;SDS011;30298;52.562;13.414;2023-03-09T05:11:19;32.37;;;15.53;;
44588;SDS011;30298;52.562;13.414;2023-03-09T05:13:44;30.95;;;16.02;;
44588;SDS011;30298;52.562;13.414;2023-03-09T05:16:09;30.83;;;15.53;;
44588;SDS011;30298;52.562;13.414;2023-03-09T05:18:35;30.37;;;15.20;;
44588;SDS011;30298;52.562;13.414;2023-03-09T05:21:07;32.53;;;15.95;;
44588;SDS011;30298;52.562;13.414;2023-03-09T05:23:33;32.80;;;16.17;;
44588;SDS011;30298;52.562;13.414;2023-03-09T05:25:59;31.15;;;15.40;;
44588;SDS011;30298;52.562;13.414;2023-03-09T05:28:24;27.63;;;14.63;;
44588;SDS011;30298;52.562;13.414;2023-03-09T05:30:50;30.67;;;14.93;;
44588;SDS011;30298;52.562;13.414;2023-03-09T05:33:15;32.60;;;16.50;;
44588;SDS011;30298;52.562;13.414;2023-03-09T05:35:41;29.17;;;14.20;;
44588;SDS011;30298;52.562;13.414;2023-03-09T05:38:06;29.23;;;15.80;;
44588;SDS011;30298;52.562;13.414;2023-03-09T05:40:31;30.23;;;14.60;;
44588;SDS011;30298;52.562;13.414;2023-03-09T05:42:56;30.27;;;14.70;;
44588;SDS011;30298;52.562;13.414;2023-03-09T05:45:22;26.43;;;14.77;;
44588;SDS011;30298;52.562;13.414;2023-03-09T05:47:47;26.53;;;14.37;;
44588;SDS011;30298;52.562;13.414;2023-03-09T05:50:12;29.50;;;15.97;;
44588;SDS011;30298;52.562;13.414;2023-03-09T05:52:38;26.60;;;14.93;;
44588;SDS011;30298;52.562;13.414;2023-03-09T05:55:03;27.70;;;15.35;;
44588;SDS011;30298;52.562;13.414;2023-03-09T05:57:29;27.53;;;14.93;;
44588;SDS011;30298;52.562;13.414;2023-03-09T05:59:54;30.63;;;15.40;;
44588;SDS011;30298;52.562;13.414;2023-03-09T06:02:19;31.63;;;15.20;;
44588;SDS011;30298;52.562;13.414;2023-03-09T06:04:48;30.60;;;15.80;;
44588;SDS011;30298;52.562;13.414;2023-03-09T06:07:13;27.65;;;15.05;;
44588;SDS011;30298;52.562;13.414;2023-03-09T06:09:39;31.02;;;15.98;;
44588;SDS011;30298;52.562;13.414;2023-03-09T06:12:04;29.33;;;15.80;;
44588;SDS011;30298;52.562;13.414;2023-03-09T06:14:29;27.60;;;14.83;;
44588;SDS011;30298;52.562;13.414;2023-03-09T06:16:55;24.43;;;14.13;;
44588;SDS011;30298;52.562;13.414;2023-03-09T06:19:23;25.55;;;14.82;;
44588;SDS011;30298;52.562;13.414;2023-03-09T06:21:48;27.13;;;14.33;;
44588;SDS011;30298;52.562;13.414;2023-03-09T06:24:14;29.88;;;13.90;;
44588;SDS011;30298;52.562;13.414;2023-03-09T06:26:39;26.13;;;13.88;;
44588;SDS011;30298;52.562;13.414;2023-03-09T06:29:05;28.30;;;14.50;;
44588;SDS011;30298;52.562;13.414;2023-03-09T06:31:30;29.30;;;14.25;;
44588;SDS011;30298;52.562;13.414;2023-03-09T06:33:57;25.33;;;14.38;;
44588;SDS011;30298;52.562;13.414;2023-03-09T06:36:22;25.73;;;14.37;;
44588;SDS011;30298;52.562;13.414;2023-03-09T06:38:48;26.73;;;14.07;;
44588;SDS011;30298;52.562;13.414;2023-03-09T06:41:13;28.40;;;13.97;;
44588;SDS011;30298;52.562;13.414;2023-03-09T06:46:07;24.40;;;13.43;;
44588;SDS011;30298;52.562;13.414;2023-03-09T06:48:32;28.75;;;14.05;;
44588;SDS011;30298;52.562;13.414;2023-03-09T06:50:57;26.30;;;13.30;;
44588;SDS011;30298;52.562;13.414;2023-03-09T06:53:23;25.73;;;13.37;;
44588;SDS011;30298;52.562;13.414;2023-03-09T06:55:48;24.92;;;13.43;;
44588;SDS011;30298;52.562;13.414;2023-03-09T06:58:13;25.33;;;13.90;;
44588;SDS011;30298;52.562;13.414;2023-03-09T07:00:39;23.70;;;13.73;;
44588;SDS011;30298;52.562;13.414;2023-03-09T07:03:06;28.33;;;14.25;;
44588;SDS011;30298;52.562;13.414;2023-03-09T07:05:31;25.08;;;13.40;;
44588;SDS011;30298;52.562;13.414;2023-03-09T07:07:57;25.25;;;14.70;;
44588;SDS011;30298;52.562;13.414;2023-03-09T07:10:22;27.93;;;14.10;;
44588;SDS011;30298;52.562;13.414;2023-03-09T07:12:48;23.17;;;13.60;;
44588;SDS011;30298;52.562;13.414;2023-03-09T07:15:14;22.98;;;13.02;;
44588;SDS011;30298;52.562;13.414;2023-03-09T07:17:41;23.13;;;13.63;;
44588;SDS011;30298;52.562;13.414;2023-03-09T07:20:08;24.35;;;13.00;;
44588;SDS011;30298;52.562;13.414;2023-03-09T07:24:58;28.02;;;13.40;;
44588;SDS011;30298;52.562;13.414;2023-03-09T07:27:23;20.70;;;12.23;;
44588;SDS011;30298;52.562;13.414;2023-03-09T07:29:49;22.20;;;12.77;;
44588;SDS011;30298;52.562;13.414;2023-03-09T07:32:14;23.90;;;12.53;;
44588;SDS011;30298;52.562;13.414;2023-03-09T07:34:39;21.60;;;13.07;;
44588;SDS011;30298;52.562;13.414;2023-03-09T07:37:05;23.93;;;12.60;;
44588;SDS011;30298;52.562;13.414;2023-03-09T07:39:30;22.63;;;12.50;;
44588;SDS011;30298;52.562;13.414;2023-03-09T07:41:56;23.53;;;12.73;;
44588;SDS011;30298;52.562;13.414;2023-03-09T07:44:21;18.70;;;10.87;;
44588;SDS011;30298;52.562;13.414;2023-03-09T07:46:46;17.80;;;11.53;;
44588;SDS011;30298;52.562;13.414;2023-03-09T07:49:12;17.73;;;10.55;;
44588;SDS011;30298;52.562;13.414;2023-03-09T07:51:37;24.57;;;12.87;;
44588;SDS011;30298;52.562;13.414;2023-03-09T07:54:06;17.93;;;10.97;;
44588;SDS011;30298;52.562;13.414;2023-03-09T07:56:34;20.95;;;11.65;;
44588;SDS011;30298;52.562;13.414;2023-03-09T07:59:00;18.52;;;11.50;;
44588;SDS011;30298;52.562;13.414;2023-03-09T08:01:25;20.53;;;11.50;;
44588;SDS011;30298;52.562;13.414;2023-03-09T08:03:52;20.85;;;11.32;;
44588;SDS011;30298;52.562;13.414;2023-03-09T08:06:17;21.02;;;11.82;;
44588;SDS011;30298;52.562;13.414;2023-03-09T08:11:09;19.48;;;10.63;;
44588;SDS011;30298;52.562;13.414;2023-03-09T08:13:35;21.83;;;12.13;;
44588;SDS011;30298;52.562;13.414;2023-03-09T08:16:02;21.30;;;11.57;;
44588;SDS011;30298;52.562;13.414;2023-03-09T08:18:28;20.60;;;12.38;;
44588;SDS011;30298;52.562;13.414;2023-03-09T08:20:53;17.23;;;10.95;;
44588;SDS011;30298;52.562;13.414;2023-03-09T08:23:18;17.00;;;11.37;;
44588;SDS011;30298;52.562;13.414;2023-03-09T08:25:44;17.33;;;11.77;;
44588;SDS011;30298;52.562;13.414;2023-03-09T08:28:10;19.60;;;11.77;;
44588;SDS011;30298;52.562;13.414;2023-03-09T08:30:37;17.50;;;10.95;;
44588;SDS011;30298;52.562;13.414;2023-03-09T08:33:02;19.83;;;11.27;;
44588;SDS011;30298;52.562;13.414;2023-03-09T08:35:28;15.23;;;10.87;;
44588;SDS011;30298;52.562;13.414;2023-03-09T08:40:19;18.63;;;12.53;;
44588;SDS011;30298;52.562;13.414;2023-03-09T08:42:44;19.40;;;12.63;;
44588;SDS011;30298;52.562;13.414;2023-03-09T08:45:10;17.95;;;11.60;;
44588;SDS011;30298;52.562;13.414;2023-03-09T08:47:36;20.13;;;11.98;;
44588;SDS011;30298;52.562;13.414;2023-03-09T08:50:01;20.03;;;12.47;;
44588;SDS011;30298;52.562;13.414;2023-03-09T08:52:26;22.53;;;13.57;;
44588;SDS011;30298;52.562;13.414;2023-03-09T08:54:52;21.47;;;13.50;;
44588;SDS011;30298;52.562;13.414;2023-03-09T08:57:17;18.67;;;12.40;;
44588;SDS011;30298;52.562;13.414;2023-03-09T08:59:43;24.48;;;14.32;;
44588;SDS011;30298;52.562;13.414;2023-03-09T09:02:11;20.10;;;12.85;;
44588;SDS011;30298;52.562;13.414;2023-03-09T09:04:40;19.58;;;13.32;;
44588;SDS011;30298;52.562;13.414;2023-03-09T09:07:05;22.17;;;13.93;;
44588;SDS011;30298;52.562;13.414;2023-03-09T09:09:30;24.93;;;15.23;;
44588;SDS011;30298;52.562;13.414;2023-03-09T09:11:55;24.07;;;13.77;;
44588;SDS011;30298;52.562;13.414;2023-03-09T09:14:21;22.37;;;14.27;;
44588;SDS011;30298;52.562;13.414;2023-03-09T09:16:46;22.53;;;14.07;;
44588;SDS011;30298;52.562;13.414;2023-03-09T09:19:11;21.97;;;14.40;;
44588;SDS011;30298;52.562;13.414;2023-03-09T09:21:36;24.53;;;13.90;;
44588;SDS011;30298;52.562;13.414;2023-03-09T09:24:03;23.90;;;14.68;;
44588;SDS011;30298;52.562;13.414;2023-03-09T09:26:29;23.77;;;15.15;;
44588;SDS011;30298;52.562;13.414;2023-03-09T09:28:55;22.40;;;13.82;;
44588;SDS011;30298;52.562;13.414;2023-03-09T09:31:20;26.27;;;15.40;;
44588;SDS011;30298;52.562;13.414;2023-03-09T09:33:46;24.15;;;14.40;;
44588;SDS011;30298;52.562;13.414;2023-03-09T09:36:12;26.17;;;14.07;;
44588;SDS011;30298;52.562;13.414;2023-03-09T09:38:39;25.80;;;13.70;;
44588;SDS011;30298;52.562;13.414;2023-03-09T09:41:06;28.20;;;16.58;;
44588;SDS011;30298;52.562;13.414;2023-03-09T09:43:33;25.83;;;15.45;;
44588;SDS011;30298;52.562;13.414;2023-03-09T09:45:59;22.40;;;14.73;;
44588;SDS011;30298;52.562;13.414;2023-03-09T09:48:25;26.25;;;14.10;;
44588;SDS011;30298;52.562;13.414;2023-03-09T09:55:52;25.02;;;13.70;;
44588;SDS011;30298;52.562;13.414;2023-03-09T09:58:25;22.58;;;13.80;;
44588;SDS011;30298;52.562;13.414;2023-03-09T10:00:54;24.17;;;14.25;;
44588;SDS011;30298;52.562;13.414;2023-03-09T10:03:34;22.75;;;14.52;;
44588;SDS011;30298;52.562;13.414;2023-03-09T10:06:26;24.60;;;14.68;;
44588;SDS011;30298;52.562;13.414;2023-03-09T10:11:27;23.58;;;15.15;;
44588;SDS011;30298;52.562;13.414;2023-03-09T10:16:43;23.55;;;14.27;;
44588;SDS011;30298;52.562;13.414;2023-03-09T10:19:17;26.10;;;15.70;;
44588;SDS011;30298;52.562;13.414;2023-03-09T10:21:56;29.05;;;14.77;;
44588;SDS011;30298;52.562;13.414;2023-03-09T10:24:23;20.98;;;14.27;;
44588;SDS011;30298;52.562;13.414;2023-03-09T10:27:04;24.83;;;14.77;;
44588;SDS011;30298;52.562;13.414;2023-03-09T10:35:08;24.80;;;15.00;;
44588;SDS011;30298;52.562;13.414;2023-03-09T10:37:43;25.40;;;14.85;;
44588;SDS011;30298;52.562;13.414;2023-03-09T10:40:14;26.48;;;14.75;;
44588;SDS011;30298;52.562;13.414;2023-03-09T10:42:41;23.52;;;14.40;;
44588;SDS011;30298;52.562;13.414;2023-03-09T10:50:12;23.73;;;14.45;;
44588;SDS011;30298;52.562;13.414;2023-03-09T10:57:53;26.33;;;15.35;;
44588;SDS011;30298;52.562;13.414;2023-03-09T11:00:19;26.92;;;15.00;;
44588;SDS011;30298;52.562;13.414;2023-03-09T11:02:55;28.55;;;15.10;;
44588;SDS011;30298;52.562;13.414;2023-03-09T11:05:21;22.67;;;14.82;;
44588;SDS011;30298;52.562;13.414;2023-03-09T11:07:50;28.23;;;16.85;;
44588;SDS011;30298;52.562;13.414;2023-03-09T11:12:50;29.45;;;15.70;;
44588;SDS011;30298;52.562;13.414;2023-03-09T11:17:45;26.30;;;15.03;;
44588;SDS011;30298;52.562;13.414;2023-03-09T11:31:14;28.52;;;16.05;;
44588;SDS011;30298;52.562;13.414;2023-03-09T11:33:41;27.58;;;16.25;;
44588;SDS011;30298;52.562;13.414;2023-03-09T11:36:08;28.10;;;16.55;;
44588;SDS011;30298;52.562;13.414;2023-03-09T11:38:35;26.52;;;15.88;;
44588;SDS011;30298;52.562;13.414;2023-03-09T11:41:11;27.90;;;16.35;;
44588;SDS011;30298;52.562;13.414;2023-03-09T11:43:39;25.25;;;16.15;;
44588;SDS011;30298;52.562;13.414;2023-03-09T11:46:06;32.85;;;16.73;;
44588;SDS011;30298;52.562;13.414;2023-03-09T11:48:40;29.55;;;17.17;;
44588;SDS011;30298;52.562;13.414;2023-03-09T11:51:11;23.75;;;14.52;;
44588;SDS011;30298;52.562;13.414;2023-03-09T11:53:43;25.55;;;16.17;;
44588;SDS011;30298;52.562;13.414;2023-03-09T11:56:13;27.98;;;17.58;;
44588;SDS011;30298;52.562;13.414;2023-03-09T11:58:41;34.17;;;16.92;;
44588;SDS011;30298;52.562;13.414;2023-03-09T12:03:32;31.60;;;16.08;;
44588;SDS011;30298;52.562;13.414;2023-03-09T12:06:03;29.65;;;17.42;;
44588;SDS011;30298;52.562;13.414;2023-03-09T12:08:35;27.60;;;17.35;;
44588;SDS011;30298;52.562;13.414;2023-03-09T12:13:27;28.50;;;16.10;;
44588;SDS011;30298;52.562;13.414;2023-03-09T12:18:33;28.65;;;17.27;;
44588;SDS011;30298;52.562;13.414;2023-03-09T12:21:00;29.13;;;17.67;;
44588;SDS011;30298;52.562;13.414;2023-03-09T12:26:01;29.55;;;16.50;;
44588;SDS011;30298;52.562;13.414;2023-03-09T12:28:27;31.17;;;17.23;;
44588;SDS011;30298;52.562;13.414;2023-03-09T12:30:55;30.47;;;16.90;;
44588;SDS011;30298;52.562;13.414;2023-03-09T12:36:15;29.15;;;16.75;;
44588;SDS011;30298;52.562;13.414;2023-03-09T12:38:45;29.65;;;17.23;;
44588;SDS011;30298;52.562;13.414;2023-03-09T12:41:50;30.87;;;17.53;;
44588;SDS011;30298;52.562;13.414;2023-03-09T12:43:55;32.10;;;17.98;;
44588;SDS011;30298;52.562;13.414;2023-03-09T12:46:37;31.97;;;17.63;;
44588;SDS011;30298;52.562;13.414;2023-03-09T12:49:03;35.05;;;18.05;;
44588;SDS011;30298;52.562;13.414;2023-03-09T12:51:37;37.15;;;17.05;;
44588;SDS011;30298;52.562;13.414;2023-03-09T12:54:16;30.33;;;17.63;;
44588;SDS011;30298;52.562;13.414;2023-03-09T12:56:43;29.40;;;16.98;;
44588;SDS011;30298;52.562;13.414;2023-03-09T12:59:08;31.90;;;17.40;;
44588;SDS011;30298;52.562;13.414;2023-03-09T13:01:34;30.83;;;19.23;;
44588;SDS011;30298;52.562;13.414;2023-03-09T13:06:31;28.30;;;17.60;;
44588;SDS011;30298;52.562;13.414;2023-03-09T13:09:03;31.95;;;18.02;;
44588;SDS011;30298;52.562;13.414;2023-03-09T13:11:37;30.55;;;18.15;;
44588;SDS011;30298;52.562;13.414;2023-03-09T13:14:15;35.80;;;20.48;;
44588;SDS011;30298;52.562;13.414;2023-03-09T13:26:46;28.83;;;17.23;;
44588;SDS011;30298;52.562;13.414;2023-03-09T13:29:15;31.77;;;17.40;;
44588;SDS011;30298;52.562;13.414;2023-03-09T13:31:41;33.40;;;17.00;;
44588;SDS011;30298;52.562;13.414;2023-03-09T13:34:12;33.13;;;17.40;;
44588;SDS011;30298;52.562;13.414;2023-03-09T13:36:40;29.92;;;17.52;;
44588;SDS011;30298;52.562;13.414;2023-03-09T13:39:07;33.40;;;18.40;;
44588;SDS011;30298;52.562;13.414;2023-03-09T13:41:38;36.85;;;18.60;;
44588;SDS011;30298;52.562;13.414;2023-03-09T13:44:04;31.37;;;17.93;;
44588;SDS011;30298;52.562;13.414;2023-03-09T13:46:32;33.23;;;17.57;;
44588;SDS011;30298;52.562;13.414;2023-03-09T13:48:59;33.97;;;19.08;;
44588;SDS011;30298;52.562;13.414;2023-03-09T13:51:34;35.10;;;19.70;;
44588;SDS011;30298;52.562;13.414;2023-03-09T13:54:00;34.17;;;18.50;;
44588;SDS011;30298;52.562;13.414;2023-03-09T13:56:26;36.38;;;19.58;;
44588;SDS011;30298;52.562;13.414;2023-03-09T13:58:53;31.67;;;18.02;;
44588;SDS011;30298;52.562;13.414;2023-03-09T14:01:20;34.22;;;18.65;;
44588;SDS011;30298;52.562;13.414;2023-03-09T14:03:47;36.72;;;19.58;;
44588;SDS011;30298;52.562;13.414;2023-03-09T14:06:12;31.65;;;18.42;;
44588;SDS011;30298;52.562;13.414;2023-03-09T14:08:45;33.57;;;18.90;;
44588;SDS011;30298;52.562;13.414;2023-03-09T14:11:20;32.58;;;18.73;;
44588;SDS011;30298;52.562;13.414;2023-03-09T14:13:51;36.17;;;19.38;;
44588;SDS011;30298;52.562;13.414;2023-03-09T14:16:18;34.00;;;19.58;;
44588;SDS011;30298;52.562;13.414;2023-03-09T14:18:50;36.27;;;20.70;;
44588;SDS011;30298;52.562;13.414;2023-03-09T14:23:54;31.50;;;18.30;;
44588;SDS011;30298;52.562;13.414;2023-03-09T14:26:29;34.97;;;18.33;;
44588;SDS011;30298;52.562;13.414;2023-03-09T14:29:02;32.83;;;18.58;;
44588;SDS011;30298;52.562;13.414;2023-03-09T14:31:28;34.55;;;18.95;;
44588;SDS011;30298;52.562;13.414;2023-03-09T14:36:19;38.13;;;19.63;;
44588;SDS011;30298;52.562;13.414;2023-03-09T14:41:20;31.38;;;17.15;;
44588;SDS011;30298;52.562;13.414;2023-03-09T14:43:46;32.72;;;18.13;;
44588;SDS011;30298;52.562;13.414;2023-03-09T14:46:16;33.72;;;18.95;;
44588;SDS011;30298;52.562;13.414;2023-03-09T14:48:49;32.97;;;19.30;;
44588;SDS011;30298;52.562;13.414;2023-03-09T14:51:19;35.08;;;18.98;;
44588;SDS011;30298;52.562;13.414;2023-03-09T14:53:50;39.05;;;19.60;;
44588;SDS011;30298;52.562;13.414;2023-03-09T14:56:16;33.83;;;18.92;;
44588;SDS011;30298;52.562;13.414;2023-03-09T14:58:41;35.67;;;20.07;;
44588;SDS011;30298;52.562;13.414;2023-03-09T15:01:07;37.57;;;19.20;;
44588;SDS011;30298;52.562;13.414;2023-03-09T15:03:32;36.00;;;18.57;;
44588;SDS011;30298;52.562;13.414;2023-03-09T15:05:57;37.30;;;17.97;;
44588;SDS011;30298;52.562;13.414;2023-03-09T15:08:23;38.00;;;18.53;;
44588;SDS011;30298;52.562;13.414;2023-03-09T15:10:50;40.55;;;19.75;;
44588;SDS011;30298;52.562;13.414;2023-03-09T15:13:16;36.88;;;20.00;;
44588;SDS011;30298;52.562;13.414;2023-03-09T15:15:41;36.17;;;19.97;;
44588;SDS011;30298;52.562;13.414;2023-03-09T15:18:07;40.57;;;19.93;;
44588;SDS011;30298;52.562;13.414;2023-03-09T15:20:32;44.15;;;21.27;;
44588;SDS011;30298;52.562;13.414;2023-03-09T15:22:57;38.70;;;19.83;;
44588;SDS011;30298;52.562;13.414;2023-03-09T15:25:23;41.33;;;19.77;;
44588;SDS011;30298;52.562;13.414;2023-03-09T15:27:48;37.78;;;19.48;;
44588;SDS011;30298;52.562;13.414;2023-03-09T15:30:16;39.93;;;19.97;;
44588;SDS011;30298;52.562;13.414;2023-03-09T15:32:41;36.97;;;20.70;;
44588;SDS011;30298;52.562;13.414;2023-03-09T15:35:07;36.50;;;18.80;;
44588;SDS011;30298;52.562;13.414;2023-03-09T15:37:35;39.50;;;19.33;;
44588;SDS011;30298;52.562;13.414;2023-03-09T15:40:00;39.63;;;19.97;;
44588;SDS011;30298;52.562;13.414;2023-03-09T15:42:26;41.90;;;22.20;;